sensor_id;sensor_type;location;lat;lon;timestamp;P1;durP1;ratioP1;P2;durP2;ratioP2
75696;SDS011;64312;44.738;20.612;2022-10-16T00:00:56;4.88;;;3.40;;
75696;SDS011;64312;44.738;20.612;2022-10-16T00:03:22;4.60;;;3.00;;
75696;SDS011;64312;44.738;20.612;2022-10-16T00:05:48;5.20;;;2.72;;
75696;SDS011;64312;44.738;20.612;2022-10-16T00:08:14;5.00;;;3.05;;
75696;SDS011;64312;44.738;20.612;2022-10-16T00:10:40;3.33;;;2.88;;
75696;SDS011;64312;44.738;20.612;2022-10-16T00:13:06;4.05;;;3.03;;
75696;SDS011;64312;44.738;20.612;2022-10-16T00:15:33;4.28;;;2.80;;
75696;SDS011;64312;44.738;20.612;2022-10-16T00:18:01;4.35;;;2.65;;
75696;SDS011;64312;44.738;20.612;2022-10-16T00:20:28;3.80;;;2.83;;
75696;SDS011;64312;44.738;20.612;2022-10-16T00:22:56;4.22;;;2.70;;
75696;SDS011;64312;44.738;20.612;2022-10-16T00:25:22;5.47;;;3.50;;
75696;SDS011;64312;44.738;20.612;2022-10-16T00:27:48;3.65;;;2.38;;
75696;SDS011;64312;44.738;20.612;2022-10-16T00:30:14;4.00;;;2.65;;
75696;SDS011;64312;44.738;20.612;2022-10-16T00:32:39;5.57;;;2.15;;
75696;SDS011;64312;44.738;20.612;2022-10-16T00:35:05;3.80;;;2.40;;
75696;SDS011;64312;44.738;20.612;2022-10-16T00:37:31;5.35;;;2.35;;
75696;SDS011;64312;44.738;20.612;2022-10-16T00:39:57;2.92;;;2.15;;
75696;SDS011;64312;44.738;20.612;2022-10-16T00:42:23;3.65;;;2.20;;
75696;SDS011;64312;44.738;20.612;2022-10-16T00:44:50;3.75;;;2.35;;
75696;SDS011;64312;44.738;20.612;2022-10-16T00:47:19;2.80;;;2.38;;
75696;SDS011;64312;44.738;20.612;2022-10-16T00:49:50;5.32;;;3.10;;
75696;SDS011;64312;44.738;20.612;2022-10-16T00:52:18;7.00;;;3.20;;
75696;SDS011;64312;44.738;20.612;2022-10-16T00:54:46;4.05;;;2.50;;
75696;SDS011;64312;44.738;20.612;2022-10-16T00:57:12;5.32;;;2.50;;
75696;SDS011;64312;44.738;20.612;2022-10-16T00:59:39;4.75;;;2.65;;
75696;SDS011;64312;44.738;20.612;2022-10-16T01:02:07;3.47;;;2.75;;
75696;SDS011;64312;44.738;20.612;2022-10-16T01:04:36;4.03;;;3.35;;
75696;SDS011;64312;44.738;20.612;2022-10-16T01:09:47;4.22;;;3.28;;
75696;SDS011;64312;44.738;20.612;2022-10-16T01:20:41;7.28;;;2.33;;
75696;SDS011;64312;44.738;20.612;2022-10-16T01:23:27;4.30;;;2.78;;
75696;SDS011;64312;44.738;20.612;2022-10-16T01:28:56;5.57;;;3.00;;
75696;SDS011;64312;44.738;20.612;2022-10-16T01:31:27;4.97;;;2.95;;
75696;SDS011;64312;44.738;20.612;2022-10-16T01:36:26;3.47;;;2.45;;
75696;SDS011;64312;44.738;20.612;2022-10-16T01:38:56;6.45;;;2.70;;
75696;SDS011;64312;44.738;20.612;2022-10-16T01:41:33;4.40;;;2.95;;
75696;SDS011;64312;44.738;20.612;2022-10-16T01:44:13;5.43;;;2.90;;
75696;SDS011;64312;44.738;20.612;2022-10-16T01:46:46;3.97;;;2.38;;
75696;SDS011;64312;44.738;20.612;2022-10-16T01:49:15;5.07;;;3.13;;
75696;SDS011;64312;44.738;20.612;2022-10-16T01:51:46;4.55;;;3.08;;
75696;SDS011;64312;44.738;20.612;2022-10-16T01:54:16;2.90;;;2.50;;
75696;SDS011;64312;44.738;20.612;2022-10-16T01:56:44;5.60;;;2.70;;
75696;SDS011;64312;44.738;20.612;2022-10-16T01:59:12;4.93;;;3.00;;
75696;SDS011;64312;44.738;20.612;2022-10-16T02:04:15;5.45;;;2.70;;
75696;SDS011;64312;44.738;20.612;2022-10-16T02:06:48;4.03;;;2.42;;
75696;SDS011;64312;44.738;20.612;2022-10-16T02:09:14;4.03;;;2.70;;
75696;SDS011;64312;44.738;20.612;2022-10-16T02:11:42;4.35;;;2.50;;
75696;SDS011;64312;44.738;20.612;2022-10-16T02:14:08;3.22;;;2.45;;
75696;SDS011;64312;44.738;20.612;2022-10-16T02:16:38;2.65;;;2.28;;
75696;SDS011;64312;44.738;20.612;2022-10-16T02:19:10;3.70;;;2.85;;
75696;SDS011;64312;44.738;20.612;2022-10-16T02:24:24;3.40;;;2.50;;
75696;SDS011;64312;44.738;20.612;2022-10-16T02:29:49;4.95;;;2.33;;
75696;SDS011;64312;44.738;20.612;2022-10-16T02:32:22;3.90;;;2.67;;
75696;SDS011;64312;44.738;20.612;2022-10-16T02:34:53;4.50;;;2.90;;
75696;SDS011;64312;44.738;20.612;2022-10-16T02:37:20;4.22;;;3.20;;
75696;SDS011;64312;44.738;20.612;2022-10-16T02:39:46;5.20;;;3.63;;
75696;SDS011;64312;44.738;20.612;2022-10-16T02:42:12;3.90;;;2.92;;
75696;SDS011;64312;44.738;20.612;2022-10-16T02:44:38;4.20;;;2.85;;
75696;SDS011;64312;44.738;20.612;2022-10-16T02:47:04;3.60;;;2.10;;
75696;SDS011;64312;44.738;20.612;2022-10-16T02:49:30;5.80;;;3.50;;
75696;SDS011;64312;44.738;20.612;2022-10-16T02:51:56;5.30;;;2.92;;
75696;SDS011;64312;44.738;20.612;2022-10-16T02:54:22;4.68;;;3.28;;
75696;SDS011;64312;44.738;20.612;2022-10-16T02:56:47;5.32;;;3.05;;
75696;SDS011;64312;44.738;20.612;2022-10-16T02:59:13;3.58;;;2.63;;
75696;SDS011;64312;44.738;20.612;2022-10-16T03:01:39;5.60;;;3.10;;
75696;SDS011;64312;44.738;20.612;2022-10-16T03:04:04;5.93;;;3.13;;
75696;SDS011;64312;44.738;20.612;2022-10-16T03:06:30;4.85;;;3.58;;
75696;SDS011;64312;44.738;20.612;2022-10-16T03:08:55;5.22;;;3.25;;
75696;SDS011;64312;44.738;20.612;2022-10-16T03:11:21;5.63;;;3.80;;
75696;SDS011;64312;44.738;20.612;2022-10-16T03:13:47;3.42;;;2.40;;
75696;SDS011;64312;44.738;20.612;2022-10-16T03:16:12;5.15;;;3.17;;
75696;SDS011;64312;44.738;20.612;2022-10-16T03:18:38;4.07;;;2.70;;
75696;SDS011;64312;44.738;20.612;2022-10-16T03:21:04;4.00;;;3.08;;
75696;SDS011;64312;44.738;20.612;2022-10-16T03:23:29;6.00;;;3.65;;
75696;SDS011;64312;44.738;20.612;2022-10-16T03:25:55;5.65;;;3.47;;
75696;SDS011;64312;44.738;20.612;2022-10-16T03:28:20;4.45;;;3.53;;
75696;SDS011;64312;44.738;20.612;2022-10-16T03:30:46;4.53;;;3.22;;
75696;SDS011;64312;44.738;20.612;2022-10-16T03:33:12;4.20;;;2.80;;
75696;SDS011;64312;44.738;20.612;2022-10-16T03:35:37;4.90;;;2.60;;
75696;SDS011;64312;44.738;20.612;2022-10-16T03:38:03;4.97;;;2.25;;
75696;SDS011;64312;44.738;20.612;2022-10-16T03:40:29;6.63;;;3.13;;
75696;SDS011;64312;44.738;20.612;2022-10-16T03:42:56;5.72;;;3.13;;
75696;SDS011;64312;44.738;20.612;2022-10-16T03:45:22;7.10;;;3.60;;
75696;SDS011;64312;44.738;20.612;2022-10-16T03:47:49;2.90;;;2.47;;
75696;SDS011;64312;44.738;20.612;2022-10-16T03:50:14;7.50;;;3.80;;
75696;SDS011;64312;44.738;20.612;2022-10-16T03:52:40;7.35;;;3.63;;
75696;SDS011;64312;44.738;20.612;2022-10-16T03:55:08;5.68;;;3.05;;
75696;SDS011;64312;44.738;20.612;2022-10-16T03:57:34;4.22;;;2.47;;
75696;SDS011;64312;44.738;20.612;2022-10-16T04:00:00;4.70;;;2.95;;
75696;SDS011;64312;44.738;20.612;2022-10-16T04:02:25;5.45;;;3.28;;
75696;SDS011;64312;44.738;20.612;2022-10-16T04:04:51;4.32;;;2.95;;
75696;SDS011;64312;44.738;20.612;2022-10-16T04:07:16;4.53;;;2.72;;
75696;SDS011;64312;44.738;20.612;2022-10-16T04:09:42;3.90;;;2.30;;
75696;SDS011;64312;44.738;20.612;2022-10-16T04:12:08;6.18;;;2.80;;
75696;SDS011;64312;44.738;20.612;2022-10-16T04:14:33;4.68;;;2.28;;
75696;SDS011;64312;44.738;20.612;2022-10-16T04:16:59;3.38;;;2.67;;
75696;SDS011;64312;44.738;20.612;2022-10-16T04:19:24;2.88;;;2.05;;
75696;SDS011;64312;44.738;20.612;2022-10-16T04:21:50;2.70;;;2.17;;
75696;SDS011;64312;44.738;20.612;2022-10-16T04:24:16;4.18;;;2.28;;
75696;SDS011;64312;44.738;20.612;2022-10-16T04:26:42;2.88;;;2.35;;
75696;SDS011;64312;44.738;20.612;2022-10-16T04:29:07;4.15;;;2.08;;
75696;SDS011;64312;44.738;20.612;2022-10-16T04:31:33;2.53;;;2.03;;
75696;SDS011;64312;44.738;20.612;2022-10-16T04:33:58;4.05;;;2.17;;
75696;SDS011;64312;44.738;20.612;2022-10-16T04:36:24;3.45;;;2.28;;
75696;SDS011;64312;44.738;20.612;2022-10-16T04:38:49;3.97;;;2.38;;
75696;SDS011;64312;44.738;20.612;2022-10-16T04:41:15;5.43;;;3.45;;
75696;SDS011;64312;44.738;20.612;2022-10-16T04:43:40;4.55;;;2.70;;
75696;SDS011;64312;44.738;20.612;2022-10-16T04:46:06;3.30;;;2.17;;
75696;SDS011;64312;44.738;20.612;2022-10-16T04:48:32;3.40;;;2.40;;
75696;SDS011;64312;44.738;20.612;2022-10-16T04:50:58;3.88;;;2.35;;
75696;SDS011;64312;44.738;20.612;2022-10-16T04:53:24;2.88;;;1.90;;
75696;SDS011;64312;44.738;20.612;2022-10-16T04:55:50;4.22;;;2.72;;
75696;SDS011;64312;44.738;20.612;2022-10-16T04:58:16;3.65;;;1.92;;
75696;SDS011;64312;44.738;20.612;2022-10-16T05:00:43;2.80;;;1.95;;
75696;SDS011;64312;44.738;20.612;2022-10-16T05:03:11;2.97;;;1.90;;
75696;SDS011;64312;44.738;20.612;2022-10-16T05:05:41;3.50;;;2.45;;
75696;SDS011;64312;44.738;20.612;2022-10-16T05:08:09;3.17;;;1.85;;
75696;SDS011;64312;44.738;20.612;2022-10-16T05:10:35;2.45;;;2.22;;
75696;SDS011;64312;44.738;20.612;2022-10-16T05:13:01;3.83;;;2.22;;
75696;SDS011;64312;44.738;20.612;2022-10-16T05:15:27;3.42;;;2.13;;
75696;SDS011;64312;44.738;20.612;2022-10-16T05:17:53;2.45;;;1.70;;
75696;SDS011;64312;44.738;20.612;2022-10-16T05:20:19;3.25;;;2.10;;
75696;SDS011;64312;44.738;20.612;2022-10-16T05:22:44;4.25;;;2.47;;
75696;SDS011;64312;44.738;20.612;2022-10-16T05:25:10;4.60;;;2.75;;
75696;SDS011;64312;44.738;20.612;2022-10-16T05:27:36;4.47;;;2.78;;
75696;SDS011;64312;44.738;20.612;2022-10-16T05:30:01;6.00;;;3.13;;
75696;SDS011;64312;44.738;20.612;2022-10-16T05:32:27;5.28;;;3.58;;
75696;SDS011;64312;44.738;20.612;2022-10-16T05:34:53;4.45;;;3.17;;
75696;SDS011;64312;44.738;20.612;2022-10-16T05:37:18;4.95;;;3.17;;
75696;SDS011;64312;44.738;20.612;2022-10-16T05:39:44;5.53;;;3.10;;
75696;SDS011;64312;44.738;20.612;2022-10-16T05:42:09;4.28;;;3.13;;
75696;SDS011;64312;44.738;20.612;2022-10-16T05:44:35;6.53;;;3.35;;
75696;SDS011;64312;44.738;20.612;2022-10-16T05:47:00;4.75;;;2.85;;
75696;SDS011;64312;44.738;20.612;2022-10-16T05:49:26;5.03;;;2.92;;
75696;SDS011;64312;44.738;20.612;2022-10-16T05:51:52;4.43;;;2.88;;
75696;SDS011;64312;44.738;20.612;2022-10-16T05:54:17;6.40;;;3.38;;
75696;SDS011;64312;44.738;20.612;2022-10-16T05:56:43;5.38;;;2.83;;
75696;SDS011;64312;44.738;20.612;2022-10-16T05:59:08;6.07;;;3.03;;
75696;SDS011;64312;44.738;20.612;2022-10-16T06:01:34;5.40;;;3.15;;
75696;SDS011;64312;44.738;20.612;2022-10-16T06:04:00;5.32;;;3.03;;
75696;SDS011;64312;44.738;20.612;2022-10-16T06:06:26;4.57;;;2.85;;
75696;SDS011;64312;44.738;20.612;2022-10-16T06:08:54;4.50;;;2.80;;
75696;SDS011;64312;44.738;20.612;2022-10-16T06:11:22;5.00;;;3.58;;
75696;SDS011;64312;44.738;20.612;2022-10-16T06:13:53;5.50;;;3.45;;
75696;SDS011;64312;44.738;20.612;2022-10-16T06:16:22;5.20;;;3.72;;
75696;SDS011;64312;44.738;20.612;2022-10-16T06:18:50;6.97;;;4.53;;
75696;SDS011;64312;44.738;20.612;2022-10-16T06:21:17;7.53;;;3.83;;
75696;SDS011;64312;44.738;20.612;2022-10-16T06:23:45;6.57;;;3.92;;
75696;SDS011;64312;44.738;20.612;2022-10-16T06:26:12;7.70;;;3.80;;
75696;SDS011;64312;44.738;20.612;2022-10-16T06:28:40;6.32;;;4.15;;
75696;SDS011;64312;44.738;20.612;2022-10-16T06:31:06;5.45;;;3.45;;
75696;SDS011;64312;44.738;20.612;2022-10-16T06:33:33;6.57;;;4.57;;
75696;SDS011;64312;44.738;20.612;2022-10-16T06:36:07;5.97;;;4.45;;
75696;SDS011;64312;44.738;20.612;2022-10-16T06:38:35;6.95;;;4.43;;
75696;SDS011;64312;44.738;20.612;2022-10-16T06:41:01;6.35;;;3.88;;
75696;SDS011;64312;44.738;20.612;2022-10-16T06:43:30;6.05;;;2.92;;
75696;SDS011;64312;44.738;20.612;2022-10-16T06:46:02;4.38;;;2.80;;
75696;SDS011;64312;44.738;20.612;2022-10-16T06:48:29;6.13;;;3.83;;
75696;SDS011;64312;44.738;20.612;2022-10-16T06:50:56;5.93;;;3.35;;
75696;SDS011;64312;44.738;20.612;2022-10-16T06:53:30;3.05;;;2.33;;
75696;SDS011;64312;44.738;20.612;2022-10-16T06:56:05;3.20;;;2.63;;
75696;SDS011;64312;44.738;20.612;2022-10-16T06:58:32;5.75;;;2.75;;
75696;SDS011;64312;44.738;20.612;2022-10-16T07:00:58;4.85;;;2.63;;
75696;SDS011;64312;44.738;20.612;2022-10-16T07:03:24;2.50;;;1.75;;
75696;SDS011;64312;44.738;20.612;2022-10-16T07:05:49;3.90;;;2.42;;
75696;SDS011;64312;44.738;20.612;2022-10-16T07:08:15;2.67;;;1.90;;
75696;SDS011;64312;44.738;20.612;2022-10-16T07:10:41;3.20;;;2.20;;
75696;SDS011;64312;44.738;20.612;2022-10-16T07:13:07;3.70;;;3.20;;
75696;SDS011;64312;44.738;20.612;2022-10-16T07:15:32;3.97;;;2.63;;
75696;SDS011;64312;44.738;20.612;2022-10-16T07:17:58;2.88;;;2.03;;
75696;SDS011;64312;44.738;20.612;2022-10-16T07:20:24;4.25;;;2.47;;
75696;SDS011;64312;44.738;20.612;2022-10-16T07:22:50;2.00;;;1.70;;
75696;SDS011;64312;44.738;20.612;2022-10-16T07:25:16;3.58;;;2.00;;
75696;SDS011;64312;44.738;20.612;2022-10-16T07:27:42;2.35;;;1.70;;
75696;SDS011;64312;44.738;20.612;2022-10-16T07:30:08;1.80;;;1.65;;
75696;SDS011;64312;44.738;20.612;2022-10-16T07:32:34;3.47;;;2.10;;
75696;SDS011;64312;44.738;20.612;2022-10-16T07:34:59;2.05;;;1.63;;
75696;SDS011;64312;44.738;20.612;2022-10-16T07:37:25;3.05;;;1.80;;
75696;SDS011;64312;44.738;20.612;2022-10-16T07:39:50;2.72;;;1.90;;
75696;SDS011;64312;44.738;20.612;2022-10-16T07:42:17;1.88;;;1.60;;
75696;SDS011;64312;44.738;20.612;2022-10-16T07:44:42;4.38;;;3.03;;
75696;SDS011;64312;44.738;20.612;2022-10-16T07:47:08;2.38;;;2.10;;
75696;SDS011;64312;44.738;20.612;2022-10-16T07:49:34;3.50;;;1.98;;
75696;SDS011;64312;44.738;20.612;2022-10-16T07:52:00;2.88;;;2.10;;
75696;SDS011;64312;44.738;20.612;2022-10-16T07:54:25;3.10;;;2.20;;
75696;SDS011;64312;44.738;20.612;2022-10-16T07:56:51;3.83;;;2.22;;
75696;SDS011;64312;44.738;20.612;2022-10-16T07:59:16;3.20;;;2.03;;
75696;SDS011;64312;44.738;20.612;2022-10-16T08:01:42;2.95;;;2.20;;
75696;SDS011;64312;44.738;20.612;2022-10-16T08:04:08;2.17;;;1.85;;
75696;SDS011;64312;44.738;20.612;2022-10-16T08:06:35;2.85;;;2.15;;
75696;SDS011;64312;44.738;20.612;2022-10-16T08:09:02;4.47;;;2.58;;
75696;SDS011;64312;44.738;20.612;2022-10-16T08:11:28;3.63;;;2.55;;
75696;SDS011;64312;44.738;20.612;2022-10-16T08:13:53;3.20;;;2.22;;
75696;SDS011;64312;44.738;20.612;2022-10-16T08:16:19;3.53;;;2.20;;
75696;SDS011;64312;44.738;20.612;2022-10-16T08:18:45;4.38;;;2.75;;
75696;SDS011;64312;44.738;20.612;2022-10-16T08:21:15;4.10;;;2.50;;
75696;SDS011;64312;44.738;20.612;2022-10-16T08:23:42;4.82;;;3.15;;
75696;SDS011;64312;44.738;20.612;2022-10-16T08:26:09;4.38;;;3.22;;
75696;SDS011;64312;44.738;20.612;2022-10-16T08:28:35;6.80;;;3.30;;
75696;SDS011;64312;44.738;20.612;2022-10-16T08:31:19;4.35;;;2.92;;
75696;SDS011;64312;44.738;20.612;2022-10-16T08:33:45;2.63;;;2.28;;
75696;SDS011;64312;44.738;20.612;2022-10-16T08:36:13;2.80;;;2.08;;
75696;SDS011;64312;44.738;20.612;2022-10-16T08:38:43;3.00;;;1.98;;
75696;SDS011;64312;44.738;20.612;2022-10-16T08:41:17;2.80;;;2.30;;
75696;SDS011;64312;44.738;20.612;2022-10-16T08:43:55;3.95;;;2.28;;
75696;SDS011;64312;44.738;20.612;2022-10-16T08:46:36;2.72;;;2.20;;
75696;SDS011;64312;44.738;20.612;2022-10-16T08:49:15;4.20;;;2.35;;
75696;SDS011;64312;44.738;20.612;2022-10-16T08:51:45;3.80;;;2.50;;
75696;SDS011;64312;44.738;20.612;2022-10-16T08:54:18;5.13;;;2.88;;
75696;SDS011;64312;44.738;20.612;2022-10-16T08:56:53;2.70;;;2.22;;
75696;SDS011;64312;44.738;20.612;2022-10-16T08:59:20;2.92;;;2.10;;
75696;SDS011;64312;44.738;20.612;2022-10-16T09:01:46;2.72;;;2.00;;
75696;SDS011;64312;44.738;20.612;2022-10-16T09:07:04;3.45;;;1.85;;
75696;SDS011;64312;44.738;20.612;2022-10-16T09:10:56;2.38;;;2.17;;
75696;SDS011;64312;44.738;20.612;2022-10-16T09:21:19;2.83;;;1.85;;
75696;SDS011;64312;44.738;20.612;2022-10-16T09:23:49;4.10;;;2.40;;
75696;SDS011;64312;44.738;20.612;2022-10-16T09:26:15;2.92;;;2.00;;
75696;SDS011;64312;44.738;20.612;2022-10-16T09:28:43;2.53;;;1.80;;
75696;SDS011;64312;44.738;20.612;2022-10-16T09:31:15;4.28;;;2.38;;
75696;SDS011;64312;44.738;20.612;2022-10-16T09:33:44;2.20;;;2.00;;
75696;SDS011;64312;44.738;20.612;2022-10-16T09:36:13;1.85;;;1.65;;
75696;SDS011;64312;44.738;20.612;2022-10-16T09:38:39;2.65;;;1.80;;
75696;SDS011;64312;44.738;20.612;2022-10-16T09:41:13;2.88;;;2.05;;
75696;SDS011;64312;44.738;20.612;2022-10-16T09:43:53;2.92;;;2.30;;
75696;SDS011;64312;44.738;20.612;2022-10-16T09:48:53;2.67;;;1.90;;
75696;SDS011;64312;44.738;20.612;2022-10-16T09:51:22;3.22;;;2.35;;
75696;SDS011;64312;44.738;20.612;2022-10-16T09:56:23;3.30;;;2.55;;
75696;SDS011;64312;44.738;20.612;2022-10-16T09:58:54;2.88;;;2.30;;
75696;SDS011;64312;44.738;20.612;2022-10-16T10:01:22;1.65;;;1.55;;
75696;SDS011;64312;44.738;20.612;2022-10-16T10:03:55;2.83;;;1.88;;
75696;SDS011;64312;44.738;20.612;2022-10-16T10:06:36;3.65;;;2.17;;
75696;SDS011;64312;44.738;20.612;2022-10-16T10:09:13;3.47;;;2.20;;
75696;SDS011;64312;44.738;20.612;2022-10-16T10:16:49;2.97;;;2.70;;
75696;SDS011;64312;44.738;20.612;2022-10-16T10:19:23;4.95;;;2.58;;
75696;SDS011;64312;44.738;20.612;2022-10-16T10:21:49;4.18;;;2.90;;
75696;SDS011;64312;44.738;20.612;2022-10-16T10:24:17;3.83;;;2.45;;
75696;SDS011;64312;44.738;20.612;2022-10-16T10:26:47;3.85;;;2.83;;
75696;SDS011;64312;44.738;20.612;2022-10-16T10:32:04;3.28;;;1.85;;
75696;SDS011;64312;44.738;20.612;2022-10-16T10:34:35;3.72;;;1.90;;
75696;SDS011;64312;44.738;20.612;2022-10-16T10:46:02;2.25;;;1.95;;
75696;SDS011;64312;44.738;20.612;2022-10-16T10:51:30;2.55;;;2.35;;
75696;SDS011;64312;44.738;20.612;2022-10-16T10:54:13;2.72;;;2.30;;
75696;SDS011;64312;44.738;20.612;2022-10-16T11:02:53;2.95;;;1.77;;
75696;SDS011;64312;44.738;20.612;2022-10-16T11:05:28;2.17;;;1.83;;
75696;SDS011;64312;44.738;20.612;2022-10-16T11:10:34;4.03;;;2.70;;
75696;SDS011;64312;44.738;20.612;2022-10-16T11:13:20;4.35;;;2.53;;
75696;SDS011;64312;44.738;20.612;2022-10-16T11:15:55;2.95;;;1.80;;
75696;SDS011;64312;44.738;20.612;2022-10-16T11:18:32;3.65;;;2.42;;
75696;SDS011;64312;44.738;20.612;2022-10-16T11:21:10;4.07;;;2.38;;
75696;SDS011;64312;44.738;20.612;2022-10-16T11:23:43;4.57;;;2.75;;
75696;SDS011;64312;44.738;20.612;2022-10-16T11:26:11;7.45;;;3.42;;
75696;SDS011;64312;44.738;20.612;2022-10-16T11:28:45;6.70;;;3.15;;
75696;SDS011;64312;44.738;20.612;2022-10-16T11:31:16;4.97;;;2.47;;
75696;SDS011;64312;44.738;20.612;2022-10-16T11:34:49;6.00;;;3.00;;
75696;SDS011;64312;44.738;20.612;2022-10-16T11:37:19;3.17;;;2.10;;
75696;SDS011;64312;44.738;20.612;2022-10-16T11:39:48;3.38;;;2.20;;
75696;SDS011;64312;44.738;20.612;2022-10-16T11:42:36;3.70;;;2.03;;
75696;SDS011;64312;44.738;20.612;2022-10-16T11:47:48;2.55;;;2.10;;
75696;SDS011;64312;44.738;20.612;2022-10-16T11:52:55;4.47;;;2.65;;
75696;SDS011;64312;44.738;20.612;2022-10-16T11:55:31;3.47;;;2.60;;
75696;SDS011;64312;44.738;20.612;2022-10-16T11:58:02;6.22;;;2.80;;
75696;SDS011;64312;44.738;20.612;2022-10-16T12:03:55;2.63;;;2.25;;
75696;SDS011;64312;44.738;20.612;2022-10-16T12:06:44;2.33;;;2.13;;
75696;SDS011;64312;44.738;20.612;2022-10-16T12:09:19;3.42;;;2.42;;
75696;SDS011;64312;44.738;20.612;2022-10-16T12:11:49;3.25;;;2.25;;
75696;SDS011;64312;44.738;20.612;2022-10-16T12:19:17;4.05;;;2.22;;
75696;SDS011;64312;44.738;20.612;2022-10-16T12:21:44;4.00;;;2.38;;
75696;SDS011;64312;44.738;20.612;2022-10-16T12:27:00;4.25;;;3.13;;
75696;SDS011;64312;44.738;20.612;2022-10-16T12:31:59;2.42;;;2.22;;
75696;SDS011;64312;44.738;20.612;2022-10-16T12:34:29;2.00;;;1.77;;
75696;SDS011;64312;44.738;20.612;2022-10-16T12:37:07;2.50;;;1.80;;
75696;SDS011;64312;44.738;20.612;2022-10-16T12:39:39;2.50;;;1.90;;
75696;SDS011;64312;44.738;20.612;2022-10-16T12:44:54;6.03;;;2.47;;
75696;SDS011;64312;44.738;20.612;2022-10-16T12:47:21;4.55;;;2.88;;
75696;SDS011;64312;44.738;20.612;2022-10-16T12:52:54;3.47;;;3.00;;
75696;SDS011;64312;44.738;20.612;2022-10-16T12:55:20;4.10;;;2.65;;
75696;SDS011;64312;44.738;20.612;2022-10-16T13:05:58;2.85;;;2.33;;
75696;SDS011;64312;44.738;20.612;2022-10-16T13:27:56;2.85;;;2.10;;
75696;SDS011;64312;44.738;20.612;2022-10-16T13:30:29;3.90;;;2.40;;
75696;SDS011;64312;44.738;20.612;2022-10-16T13:33:01;3.67;;;3.00;;
75696;SDS011;64312;44.738;20.612;2022-10-16T13:35:28;4.40;;;2.72;;
75696;SDS011;64312;44.738;20.612;2022-10-16T13:40:37;6.15;;;3.10;;
75696;SDS011;64312;44.738;20.612;2022-10-16T13:43:27;4.00;;;2.33;;
75696;SDS011;64312;44.738;20.612;2022-10-16T13:48:21;4.00;;;2.72;;
75696;SDS011;64312;44.738;20.612;2022-10-16T13:50:57;3.20;;;2.33;;
75696;SDS011;64312;44.738;20.612;2022-10-16T13:53:27;3.58;;;2.83;;
75696;SDS011;64312;44.738;20.612;2022-10-16T13:55:55;2.80;;;2.25;;
75696;SDS011;64312;44.738;20.612;2022-10-16T13:58:21;2.78;;;2.03;;
75696;SDS011;64312;44.738;20.612;2022-10-16T14:00:58;2.80;;;1.83;;
75696;SDS011;64312;44.738;20.612;2022-10-16T14:03:25;4.20;;;2.17;;
75696;SDS011;64312;44.738;20.612;2022-10-16T14:05:54;2.53;;;1.70;;
75696;SDS011;64312;44.738;20.612;2022-10-16T14:08:23;3.35;;;2.35;;
75696;SDS011;64312;44.738;20.612;2022-10-16T14:10:51;2.67;;;2.35;;
75696;SDS011;64312;44.738;20.612;2022-10-16T14:13:25;3.20;;;2.55;;
75696;SDS011;64312;44.738;20.612;2022-10-16T14:16:25;4.80;;;2.63;;
75696;SDS011;64312;44.738;20.612;2022-10-16T14:18:58;2.72;;;2.35;;
75696;SDS011;64312;44.738;20.612;2022-10-16T14:21:31;2.63;;;2.08;;
75696;SDS011;64312;44.738;20.612;2022-10-16T14:23:58;2.65;;;2.10;;
75696;SDS011;64312;44.738;20.612;2022-10-16T14:26:25;2.20;;;1.90;;
75696;SDS011;64312;44.738;20.612;2022-10-16T14:29:12;2.78;;;2.08;;
75696;SDS011;64312;44.738;20.612;2022-10-16T14:34:32;3.08;;;2.35;;
75696;SDS011;64312;44.738;20.612;2022-10-16T14:37:00;3.92;;;2.15;;
75696;SDS011;64312;44.738;20.612;2022-10-16T14:39:39;2.25;;;1.83;;
75696;SDS011;64312;44.738;20.612;2022-10-16T14:42:04;2.40;;;1.80;;
75696;SDS011;64312;44.738;20.612;2022-10-16T14:44:42;7.88;;;1.90;;
75696;SDS011;64312;44.738;20.612;2022-10-16T14:47:15;3.47;;;2.40;;
75696;SDS011;64312;44.738;20.612;2022-10-16T14:49:47;4.75;;;3.33;;
75696;SDS011;64312;44.738;20.612;2022-10-16T14:52:13;4.65;;;2.83;;
75696;SDS011;64312;44.738;20.612;2022-10-16T14:54:39;3.55;;;2.90;;
75696;SDS011;64312;44.738;20.612;2022-10-16T14:57:05;3.50;;;2.10;;
75696;SDS011;64312;44.738;20.612;2022-10-16T14:59:42;3.35;;;2.58;;
75696;SDS011;64312;44.738;20.612;2022-10-16T15:05:02;1.90;;;1.67;;
75696;SDS011;64312;44.738;20.612;2022-10-16T15:07:37;2.33;;;1.60;;
75696;SDS011;64312;44.738;20.612;2022-10-16T15:10:02;2.33;;;1.80;;
75696;SDS011;64312;44.738;20.612;2022-10-16T15:12:28;2.50;;;1.70;;
75696;SDS011;64312;44.738;20.612;2022-10-16T15:14:54;2.17;;;1.35;;
75696;SDS011;64312;44.738;20.612;2022-10-16T15:17:19;2.17;;;1.80;;
75696;SDS011;64312;44.738;20.612;2022-10-16T15:19:45;2.67;;;2.15;;
75696;SDS011;64312;44.738;20.612;2022-10-16T15:22:11;2.38;;;1.98;;
75696;SDS011;64312;44.738;20.612;2022-10-16T15:24:37;3.35;;;2.08;;
75696;SDS011;64312;44.738;20.612;2022-10-16T15:27:03;3.13;;;1.83;;
75696;SDS011;64312;44.738;20.612;2022-10-16T15:29:28;2.50;;;2.10;;
75696;SDS011;64312;44.738;20.612;2022-10-16T15:31:54;4.28;;;1.80;;
75696;SDS011;64312;44.738;20.612;2022-10-16T15:34:19;3.17;;;2.03;;
75696;SDS011;64312;44.738;20.612;2022-10-16T15:36:45;2.63;;;2.03;;
75696;SDS011;64312;44.738;20.612;2022-10-16T15:39:15;2.72;;;1.58;;
75696;SDS011;64312;44.738;20.612;2022-10-16T15:41:42;2.22;;;1.70;;
75696;SDS011;64312;44.738;20.612;2022-10-16T15:44:07;2.45;;;2.17;;
75696;SDS011;64312;44.738;20.612;2022-10-16T15:46:33;2.65;;;1.92;;
75696;SDS011;64312;44.738;20.612;2022-10-16T15:48:59;2.08;;;1.95;;
75696;SDS011;64312;44.738;20.612;2022-10-16T15:51:26;3.08;;;1.63;;
75696;SDS011;64312;44.738;20.612;2022-10-16T15:53:55;2.50;;;1.60;;
75696;SDS011;64312;44.738;20.612;2022-10-16T15:56:22;2.22;;;1.85;;
75696;SDS011;64312;44.738;20.612;2022-10-16T15:58:48;2.47;;;2.10;;
75696;SDS011;64312;44.738;20.612;2022-10-16T16:01:14;1.73;;;1.63;;
75696;SDS011;64312;44.738;20.612;2022-10-16T16:03:39;2.22;;;1.92;;
75696;SDS011;64312;44.738;20.612;2022-10-16T16:06:06;2.78;;;1.90;;
75696;SDS011;64312;44.738;20.612;2022-10-16T16:08:33;4.07;;;2.40;;
75696;SDS011;64312;44.738;20.612;2022-10-16T16:11:01;2.88;;;2.10;;
75696;SDS011;64312;44.738;20.612;2022-10-16T16:13:34;2.67;;;2.05;;
75696;SDS011;64312;44.738;20.612;2022-10-16T16:16:04;2.67;;;1.95;;
75696;SDS011;64312;44.738;20.612;2022-10-16T16:18:31;2.30;;;1.98;;
75696;SDS011;64312;44.738;20.612;2022-10-16T16:20:56;3.13;;;2.10;;
75696;SDS011;64312;44.738;20.612;2022-10-16T16:23:22;4.93;;;2.65;;
75696;SDS011;64312;44.738;20.612;2022-10-16T16:26:07;2.83;;;2.17;;
75696;SDS011;64312;44.738;20.612;2022-10-16T16:28:36;4.30;;;2.85;;
75696;SDS011;64312;44.738;20.612;2022-10-16T16:31:02;3.63;;;2.70;;
75696;SDS011;64312;44.738;20.612;2022-10-16T16:33:28;5.20;;;2.72;;
75696;SDS011;64312;44.738;20.612;2022-10-16T16:35:57;3.78;;;2.95;;
75696;SDS011;64312;44.738;20.612;2022-10-16T16:38:23;3.63;;;2.88;;
75696;SDS011;64312;44.738;20.612;2022-10-16T16:40:49;5.47;;;3.35;;
75696;SDS011;64312;44.738;20.612;2022-10-16T16:43:15;4.68;;;3.30;;
75696;SDS011;64312;44.738;20.612;2022-10-16T16:45:40;4.32;;;3.08;;
75696;SDS011;64312;44.738;20.612;2022-10-16T16:48:06;6.28;;;4.03;;
75696;SDS011;64312;44.738;20.612;2022-10-16T16:50:35;5.90;;;4.20;;
75696;SDS011;64312;44.738;20.612;2022-10-16T16:53:02;7.80;;;4.68;;
75696;SDS011;64312;44.738;20.612;2022-10-16T16:55:27;6.78;;;3.75;;